sensor_id;sensor_type;location;lat;lon;timestamp;pressure;altitude;pressure_sealevel;temperature;humidity
10482;BME280;5288;42.334;23.876;2023-07-29T00:00:04;55990.16;;;-140.56;65.79
10482;BME280;5288;42.334;23.876;2023-07-29T00:02:33;55976.31;;;-140.56;66.04
10482;BME280;5288;42.334;23.876;2023-07-29T00:05:00;55994.13;;;-140.56;66.63
10482;BME280;5288;42.334;23.876;2023-07-29T00:07:27;55978.31;;;-140.56;66.78
10482;BME280;5288;42.334;23.876;2023-07-29T00:09:54;56004.00;;;-140.56;67.36
10482;BME280;5288;42.334;23.876;2023-07-29T00:12:21;56004.00;;;-140.56;67.33
10482;BME280;5288;42.334;23.876;2023-07-29T00:14:48;55942.72;;;-140.56;67.29
10482;BME280;5288;42.334;23.876;2023-07-29T00:17:15;55940.75;;;-140.56;67.60
10482;BME280;5288;42.334;23.876;2023-07-29T00:19:43;55982.25;;;-140.56;67.25
10482;BME280;5288;42.334;23.876;2023-07-29T00:22:11;55984.22;;;-140.56;67.33
10482;BME280;5288;42.334;23.876;2023-07-29T00:24:39;55970.41;;;-140.56;67.35
10482;BME280;5288;42.334;23.876;2023-07-29T00:27:06;55984.22;;;-140.56;68.13
10482;BME280;5288;42.334;23.876;2023-07-29T00:29:33;55990.16;;;-140.56;68.59
10482;BME280;5288;42.334;23.876;2023-07-29T00:32:00;55948.66;;;-140.56;68.44
10482;BME280;5288;42.334;23.876;2023-07-29T00:34:27;55972.38;;;-140.56;68.43
10482;BME280;5288;42.334;23.876;2023-07-29T00:36:55;55994.13;;;-140.56;68.46
10482;BME280;5288;42.334;23.876;2023-07-29T00:39:23;55982.25;;;-140.56;68.41
10482;BME280;5288;42.334;23.876;2023-07-29T00:41:49;56013.88;;;-140.56;69.17
10482;BME280;5288;42.334;23.876;2023-07-29T00:44:16;55998.06;;;-140.56;69.53
10482;BME280;5288;42.334;23.876;2023-07-29T00:46:45;55974.34;;;-140.56;69.41
10482;BME280;5288;42.334;23.876;2023-07-29T00:49:13;56029.69;;;-140.56;69.17
10482;BME280;5288;42.334;23.876;2023-07-29T00:51:40;56033.63;;;-140.56;69.43
10482;BME280;5288;42.334;23.876;2023-07-29T00:54:08;55990.16;;;-140.56;69.86
10482;BME280;5288;42.334;23.876;2023-07-29T00:56:35;56004.00;;;-140.56;69.82
10482;BME280;5288;42.334;23.876;2023-07-29T00:59:03;56007.94;;;-140.56;69.46
10482;BME280;5288;42.334;23.876;2023-07-29T01:01:30;56033.63;;;-140.56;69.53
10482;BME280;5288;42.334;23.876;2023-07-29T01:03:57;55996.09;;;-140.56;69.32
10482;BME280;5288;42.334;23.876;2023-07-29T01:06:32;56005.97;;;-140.56;69.36
10482;BME280;5288;42.334;23.876;2023-07-29T01:09:03;56005.97;;;-140.56;69.48
10482;BME280;5288;42.334;23.876;2023-07-29T01:11:41;56015.84;;;-140.56;69.42
10482;BME280;5288;42.334;23.876;2023-07-29T01:14:17;55982.25;;;-140.56;69.87
10482;BME280;5288;42.334;23.876;2023-07-29T01:16:50;56019.81;;;-140.56;69.97
10482;BME280;5288;42.334;23.876;2023-07-29T01:19:31;55988.19;;;-140.56;70.21
10482;BME280;5288;42.334;23.876;2023-07-29T01:22:05;56009.91;;;-140.56;69.18
10482;BME280;5288;42.334;23.876;2023-07-29T01:24:35;55998.06;;;-140.56;68.68
10482;BME280;5288;42.334;23.876;2023-07-29T01:27:02;55982.25;;;-140.56;69.21
10482;BME280;5288;42.334;23.876;2023-07-29T01:29:31;55982.25;;;-140.56;69.25
10482;BME280;5288;42.334;23.876;2023-07-29T01:32:11;55990.16;;;-140.56;69.95
10482;BME280;5288;42.334;23.876;2023-07-29T01:34:46;55990.16;;;-140.56;69.83
10482;BME280;5288;42.334;23.876;2023-07-29T01:37:19;56013.88;;;-140.56;69.68
10482;BME280;5288;42.334;23.876;2023-07-29T01:39:50;56021.78;;;-140.56;69.78
10482;BME280;5288;42.334;23.876;2023-07-29T01:42:20;56045.50;;;-140.56;70.18
10482;BME280;5288;42.334;23.876;2023-07-29T01:44:47;56017.81;;;-140.56;70.71
10482;BME280;5288;42.334;23.876;2023-07-29T01:47:14;56019.81;;;-140.56;71.00
10482;BME280;5288;42.334;23.876;2023-07-29T01:49:41;56000.03;;;-140.56;71.55
10482;BME280;5288;42.334;23.876;2023-07-29T01:52:08;55996.09;;;-140.56;71.49
10482;BME280;5288;42.334;23.876;2023-07-29T01:54:35;56039.56;;;-140.56;71.57
10482;BME280;5288;42.334;23.876;2023-07-29T01:57:03;56033.63;;;-140.56;74.33
10482;BME280;5288;42.334;23.876;2023-07-29T01:59:30;56009.91;;;-140.56;74.44
10482;BME280;5288;42.334;23.876;2023-07-29T02:01:57;56013.88;;;-140.56;73.45
10482;BME280;5288;42.334;23.876;2023-07-29T02:04:24;56000.03;;;-140.56;73.08
10482;BME280;5288;42.334;23.876;2023-07-29T02:06:51;56005.97;;;-140.56;71.68
10482;BME280;5288;42.334;23.876;2023-07-29T02:09:18;55998.06;;;-140.56;71.80
10482;BME280;5288;42.334;23.876;2023-07-29T02:11:46;56041.53;;;-140.56;71.35
10482;BME280;5288;42.334;23.876;2023-07-29T02:14:15;56015.84;;;-140.56;71.85
10482;BME280;5288;42.334;23.876;2023-07-29T02:16:42;55980.28;;;-140.56;71.68
10482;BME280;5288;42.334;23.876;2023-07-29T02:19:10;55994.13;;;-140.56;71.84
10482;BME280;5288;42.334;23.876;2023-07-29T02:21:36;55998.06;;;-140.56;71.86
10482;BME280;5288;42.334;23.876;2023-07-29T02:24:04;56015.84;;;-140.56;72.18
10482;BME280;5288;42.334;23.876;2023-07-29T02:26:31;56035.63;;;-140.56;72.63
10482;BME280;5288;42.334;23.876;2023-07-29T02:28:58;56015.84;;;-140.56;72.17
10482;BME280;5288;42.334;23.876;2023-07-29T02:31:26;56025.72;;;-140.56;72.85
10482;BME280;5288;42.334;23.876;2023-07-29T02:33:54;56017.81;;;-140.56;73.32
10482;BME280;5288;42.334;23.876;2023-07-29T02:36:29;56009.91;;;-140.56;72.96
10482;BME280;5288;42.334;23.876;2023-07-29T02:39:01;56037.59;;;-140.56;72.88
10482;BME280;5288;42.334;23.876;2023-07-29T02:41:28;56037.59;;;-140.56;72.97
10482;BME280;5288;42.334;23.876;2023-07-29T02:43:55;56033.63;;;-140.56;72.91
10482;BME280;5288;42.334;23.876;2023-07-29T02:46:22;56057.34;;;-140.56;73.03
10482;BME280;5288;42.334;23.876;2023-07-29T02:48:50;56025.72;;;-140.56;73.24
10482;BME280;5288;42.334;23.876;2023-07-29T02:51:17;56025.72;;;-140.56;74.07
10482;BME280;5288;42.334;23.876;2023-07-29T02:53:44;56053.41;;;-140.56;74.20
10482;BME280;5288;42.334;23.876;2023-07-29T02:56:11;55994.13;;;-140.56;74.66
10482;BME280;5288;42.334;23.876;2023-07-29T02:58:39;56029.69;;;-140.56;74.87
10482;BME280;5288;42.334;23.876;2023-07-29T03:01:06;56011.91;;;-140.56;75.51
10482;BME280;5288;42.334;23.876;2023-07-29T03:03:33;56025.72;;;-140.56;74.51
10482;BME280;5288;42.334;23.876;2023-07-29T03:06:03;56033.63;;;-140.56;73.99
10482;BME280;5288;42.334;23.876;2023-07-29T03:08:30;56041.53;;;-140.56;74.12
10482;BME280;5288;42.334;23.876;2023-07-29T03:10:57;56011.91;;;-140.56;74.19
10482;BME280;5288;42.334;23.876;2023-07-29T03:13:25;56023.75;;;-140.56;75.59
10482;BME280;5288;42.334;23.876;2023-07-29T03:15:52;56025.72;;;-140.56;77.45
10482;BME280;5288;42.334;23.876;2023-07-29T03:18:18;56041.53;;;-140.56;77.86
10482;BME280;5288;42.334;23.876;2023-07-29T03:20:45;56057.34;;;-140.56;77.71
10482;BME280;5288;42.334;23.876;2023-07-29T03:23:14;56021.78;;;-140.56;77.10
10482;BME280;5288;42.334;23.876;2023-07-29T03:25:41;56031.66;;;-140.56;77.65
10482;BME280;5288;42.334;23.876;2023-07-29T03:28:08;56033.63;;;-140.56;75.53
10482;BME280;5288;42.334;23.876;2023-07-29T03:30:35;56021.78;;;-140.56;74.79
10482;BME280;5288;42.334;23.876;2023-07-29T03:33:02;56009.91;;;-140.56;76.07
10482;BME280;5288;42.334;23.876;2023-07-29T03:35:30;56002.00;;;-140.56;75.29
10482;BME280;5288;42.334;23.876;2023-07-29T03:37:57;56035.63;;;-140.56;75.62
10482;BME280;5288;42.334;23.876;2023-07-29T03:40:25;56033.63;;;-140.56;76.81
10482;BME280;5288;42.334;23.876;2023-07-29T03:42:52;56047.47;;;-140.56;77.03
10482;BME280;5288;42.334;23.876;2023-07-29T03:45:19;56037.59;;;-140.56;76.01
10482;BME280;5288;42.334;23.876;2023-07-29T03:47:46;56041.53;;;-140.56;74.50
10482;BME280;5288;42.334;23.876;2023-07-29T03:50:13;56035.63;;;-140.56;75.59
10482;BME280;5288;42.334;23.876;2023-07-29T03:52:40;56077.09;;;-140.56;75.83
10482;BME280;5288;42.334;23.876;2023-07-29T03:55:07;56039.56;;;-140.56;76.96
10482;BME280;5288;42.334;23.876;2023-07-29T03:57:36;56043.50;;;-140.56;77.04
10482;BME280;5288;42.334;23.876;2023-07-29T04:00:03;56035.63;;;-140.56;76.96
10482;BME280;5288;42.334;23.876;2023-07-29T04:02:31;56033.63;;;-140.56;78.30
10482;BME280;5288;42.334;23.876;2023-07-29T04:04:58;56043.50;;;-140.56;78.36
10482;BME280;5288;42.334;23.876;2023-07-29T04:07:25;56015.84;;;-140.56;77.72
10482;BME280;5288;42.334;23.876;2023-07-29T04:09:52;55982.25;;;-140.56;78.93
10482;BME280;5288;42.334;23.876;2023-07-29T04:12:19;56049.44;;;-140.56;78.61
10482;BME280;5288;42.334;23.876;2023-07-29T04:14:48;56041.53;;;-140.56;78.16
10482;BME280;5288;42.334;23.876;2023-07-29T04:17:15;56011.91;;;-140.56;76.32
10482;BME280;5288;42.334;23.876;2023-07-29T04:19:42;56043.50;;;-140.56;76.11
10482;BME280;5288;42.334;23.876;2023-07-29T04:22:09;55998.06;;;-140.56;75.83
10482;BME280;5288;42.334;23.876;2023-07-29T04:24:37;56007.94;;;-140.56;75.02
10482;BME280;5288;42.334;23.876;2023-07-29T04:27:04;56004.00;;;-140.56;76.09
10482;BME280;5288;42.334;23.876;2023-07-29T04:29:31;55970.41;;;-140.56;74.60
10482;BME280;5288;42.334;23.876;2023-07-29T04:31:59;55996.09;;;-140.56;73.39
10482;BME280;5288;42.334;23.876;2023-07-29T04:34:27;55984.22;;;-140.56;73.25
10482;BME280;5288;42.334;23.876;2023-07-29T04:36:54;55986.22;;;-140.56;72.70
10482;BME280;5288;42.334;23.876;2023-07-29T04:39:21;55992.13;;;-140.56;72.92
10482;BME280;5288;42.334;23.876;2023-07-29T04:41:48;55990.16;;;-140.56;72.04
10482;BME280;5288;42.334;23.876;2023-07-29T04:44:15;55976.31;;;-140.56;71.16
10482;BME280;5288;42.334;23.876;2023-07-29T04:46:42;55984.22;;;-140.56;71.66
10482;BME280;5288;42.334;23.876;2023-07-29T04:49:10;55990.16;;;-140.56;69.74
10482;BME280;5288;42.334;23.876;2023-07-29T04:51:37;56007.94;;;-140.56;69.53
10482;BME280;5288;42.334;23.876;2023-07-29T04:54:04;56007.94;;;-140.56;69.96
10482;BME280;5288;42.334;23.876;2023-07-29T04:56:31;55998.06;;;-140.56;70.07
10482;BME280;5288;42.334;23.876;2023-07-29T04:58:58;56000.03;;;-140.56;70.26
10482;BME280;5288;42.334;23.876;2023-07-29T05:01:25;55982.25;;;-140.56;70.02
10482;BME280;5288;42.334;23.876;2023-07-29T05:03:52;56015.84;;;-140.56;69.56
10482;BME280;5288;42.334;23.876;2023-07-29T05:06:20;56005.97;;;-140.56;70.24
10482;BME280;5288;42.334;23.876;2023-07-29T05:08:47;55994.13;;;-140.56;70.31
10482;BME280;5288;42.334;23.876;2023-07-29T05:11:14;55998.06;;;-140.56;70.82
10482;BME280;5288;42.334;23.876;2023-07-29T05:13:41;55974.34;;;-140.56;71.25
10482;BME280;5288;42.334;23.876;2023-07-29T05:16:09;55998.06;;;-140.56;71.45
10482;BME280;5288;42.334;23.876;2023-07-29T05:18:36;55976.31;;;-140.56;71.91
10482;BME280;5288;42.334;23.876;2023-07-29T05:21:03;56002.00;;;-140.56;70.42
10482;BME280;5288;42.334;23.876;2023-07-29T05:23:31;55978.31;;;-140.56;69.17
10482;BME280;5288;42.334;23.876;2023-07-29T05:25:58;55986.22;;;-140.56;67.91
10482;BME280;5288;42.334;23.876;2023-07-29T05:28:25;55982.25;;;-140.56;66.84
10482;BME280;5288;42.334;23.876;2023-07-29T05:30:52;55938.78;;;-140.56;66.67
10482;BME280;5288;42.334;23.876;2023-07-29T05:33:19;55915.06;;;-140.56;66.85
10482;BME280;5288;42.334;23.876;2023-07-29T05:35:46;55930.88;;;-140.56;66.81
10482;BME280;5288;42.334;23.876;2023-07-29T05:38:13;55974.34;;;-140.56;64.51
10482;BME280;5288;42.334;23.876;2023-07-29T05:40:42;55946.69;;;-140.56;63.68
10482;BME280;5288;42.334;23.876;2023-07-29T05:43:08;55928.91;;;-140.56;63.29
10482;BME280;5288;42.334;23.876;2023-07-29T05:45:36;55907.16;;;-140.56;58.73
10482;BME280;5288;42.334;23.876;2023-07-29T05:48:03;55924.94;;;-140.56;59.44
10482;BME280;5288;42.334;23.876;2023-07-29T05:50:30;55924.94;;;-140.56;57.35
10482;BME280;5288;42.334;23.876;2023-07-29T05:52:57;55926.94;;;-140.56;56.61
10482;BME280;5288;42.334;23.876;2023-07-29T05:55:24;55891.34;;;-140.56;58.38
10482;BME280;5288;42.334;23.876;2023-07-29T05:57:52;55903.22;;;-140.56;56.16
10482;BME280;5288;42.334;23.876;2023-07-29T06:00:20;55887.41;;;-140.56;56.19
10482;BME280;5288;42.334;23.876;2023-07-29T06:02:47;55887.41;;;-140.56;56.21
10482;BME280;5288;42.334;23.876;2023-07-29T06:05:14;55883.44;;;-140.56;54.55
10482;BME280;5288;42.334;23.876;2023-07-29T06:07:41;55871.59;;;-140.56;53.69
10482;BME280;5288;42.334;23.876;2023-07-29T06:10:10;55865.66;;;-140.56;54.13
10482;BME280;5288;42.334;23.876;2023-07-29T06:12:38;55843.94;;;-140.56;51.74
10482;BME280;5288;42.334;23.876;2023-07-29T06:15:07;55851.84;;;-140.56;51.73
10482;BME280;5288;42.334;23.876;2023-07-29T06:17:34;55861.72;;;-140.56;50.07
10482;BME280;5288;42.334;23.876;2023-07-29T06:20:01;55836.03;;;-140.56;49.25
10482;BME280;5288;42.334;23.876;2023-07-29T06:22:28;55836.03;;;-140.56;47.38
10482;BME280;5288;42.334;23.876;2023-07-29T06:24:55;55830.09;;;-140.56;46.64
10482;BME280;5288;42.334;23.876;2023-07-29T06:27:22;55828.13;;;-140.56;46.51
10482;BME280;5288;42.334;23.876;2023-07-29T06:29:50;55810.34;;;-140.56;45.43
10482;BME280;5288;42.334;23.876;2023-07-29T06:32:19;55808.34;;;-140.56;46.23
10482;BME280;5288;42.334;23.876;2023-07-29T06:34:45;55796.50;;;-140.56;46.13
10482;BME280;5288;42.334;23.876;2023-07-29T06:37:12;55836.03;;;-140.56;45.64
10482;BME280;5288;42.334;23.876;2023-07-29T06:39:39;55812.31;;;-140.56;45.46
10482;BME280;5288;42.334;23.876;2023-07-29T06:42:06;55800.47;;;-140.56;46.30
10482;BME280;5288;42.334;23.876;2023-07-29T06:44:33;55794.53;;;-140.56;46.57
10482;BME280;5288;42.334;23.876;2023-07-29T06:47:00;55824.16;;;-140.56;46.36
10482;BME280;5288;42.334;23.876;2023-07-29T06:49:28;55808.34;;;-140.56;45.06
10482;BME280;5288;42.334;23.876;2023-07-29T06:51:55;55786.63;;;-140.56;44.53
10482;BME280;5288;42.334;23.876;2023-07-29T06:54:24;55794.53;;;-140.56;43.92
10482;BME280;5288;42.334;23.876;2023-07-29T06:56:51;55776.75;;;-140.56;44.15
10482;BME280;5288;42.334;23.876;2023-07-29T06:59:18;55792.56;;;-140.56;43.74
10482;BME280;5288;42.334;23.876;2023-07-29T07:01:45;55788.59;;;-140.56;43.18
10482;BME280;5288;42.334;23.876;2023-07-29T07:04:12;55782.66;;;-140.56;42.54
10482;BME280;5288;42.334;23.876;2023-07-29T07:06:41;55760.94;;;-140.56;40.17
10482;BME280;5288;42.334;23.876;2023-07-29T07:09:07;55776.75;;;-140.56;40.67
10482;BME280;5288;42.334;23.876;2023-07-29T07:11:34;55758.97;;;-140.56;39.42
10482;BME280;5288;42.334;23.876;2023-07-29T07:14:01;55790.56;;;-140.56;39.33
10482;BME280;5288;42.334;23.876;2023-07-29T07:16:28;55828.13;;;-140.56;38.67
10482;BME280;5288;42.334;23.876;2023-07-29T07:18:56;55776.75;;;-140.56;37.64
10482;BME280;5288;42.334;23.876;2023-07-29T07:21:23;55788.59;;;-140.56;38.43
10482;BME280;5288;42.334;23.876;2023-07-29T07:23:51;55762.91;;;-140.56;38.17
10482;BME280;5288;42.334;23.876;2023-07-29T07:26:18;55733.28;;;-140.56;37.25
10482;BME280;5288;42.334;23.876;2023-07-29T07:28:45;55733.28;;;-140.56;36.69
10482;BME280;5288;42.334;23.876;2023-07-29T07:31:12;55731.28;;;-140.56;36.99
10482;BME280;5288;42.334;23.876;2023-07-29T07:33:39;55745.13;;;-140.56;36.36
10482;BME280;5288;42.334;23.876;2023-07-29T07:36:06;55735.25;;;-140.56;35.91
10482;BME280;5288;42.334;23.876;2023-07-29T07:38:33;55760.94;;;-140.56;36.89
10482;BME280;5288;42.334;23.876;2023-07-29T07:41:01;55705.59;;;-140.56;36.57
10482;BME280;5288;42.334;23.876;2023-07-29T07:43:28;55707.59;;;-140.56;35.85
10482;BME280;5288;42.334;23.876;2023-07-29T07:45:58;55691.78;;;-140.56;36.21
10482;BME280;5288;42.334;23.876;2023-07-29T07:48:25;55727.34;;;-140.56;34.89
10482;BME280;5288;42.334;23.876;2023-07-29T07:50:52;55713.50;;;-140.56;35.69
10482;BME280;5288;42.334;23.876;2023-07-29T07:53:19;55725.38;;;-140.56;35.39
10482;BME280;5288;42.334;23.876;2023-07-29T07:55:46;55681.91;;;-140.56;34.82
10482;BME280;5288;42.334;23.876;2023-07-29T07:58:14;55691.78;;;-140.56;33.82
10482;BME280;5288;42.334;23.876;2023-07-29T08:00:41;55703.63;;;-140.56;34.50
10482;BME280;5288;42.334;23.876;2023-07-29T08:03:08;55717.47;;;-140.56;34.77
10482;BME280;5288;42.334;23.876;2023-07-29T08:05:35;55693.75;;;-140.56;34.82
10482;BME280;5288;42.334;23.876;2023-07-29T08:08:02;55711.53;;;-140.56;35.08
10482;BME280;5288;42.334;23.876;2023-07-29T08:10:29;55670.03;;;-140.56;34.37
10482;BME280;5288;42.334;23.876;2023-07-29T08:12:56;55656.22;;;-140.56;34.50
10482;BME280;5288;42.334;23.876;2023-07-29T08:15:24;55664.13;;;-140.56;34.32
10482;BME280;5288;42.334;23.876;2023-07-29T08:17:51;55705.59;;;-140.56;34.45
10482;BME280;5288;42.334;23.876;2023-07-29T08:20:18;55705.59;;;-140.56;34.47
10482;BME280;5288;42.334;23.876;2023-07-29T08:22:45;55672.00;;;-140.56;34.25
10482;BME280;5288;42.334;23.876;2023-07-29T08:25:13;55658.19;;;-140.56;34.90
10482;BME280;5288;42.334;23.876;2023-07-29T08:27:40;55670.03;;;-140.56;34.63
10482;BME280;5288;42.334;23.876;2023-07-29T08:30:08;55664.13;;;-140.56;33.77
10482;BME280;5288;42.334;23.876;2023-07-29T08:32:36;55630.53;;;-140.56;34.97
10482;BME280;5288;42.334;23.876;2023-07-29T08:35:04;55640.41;;;-140.56;33.36
10482;BME280;5288;42.334;23.876;2023-07-29T08:37:31;55620.63;;;-140.56;33.25
10482;BME280;5288;42.334;23.876;2023-07-29T08:39:58;55616.69;;;-140.56;33.62
10482;BME280;5288;42.334;23.876;2023-07-29T08:42:28;55628.53;;;-140.56;33.77
10482;BME280;5288;42.334;23.876;2023-07-29T08:44:56;55634.47;;;-140.56;32.91
10482;BME280;5288;42.334;23.876;2023-07-29T08:47:24;55632.50;;;-140.56;33.81
10482;BME280;5288;42.334;23.876;2023-07-29T08:49:52;55596.94;;;-140.56;33.02
10482;BME280;5288;42.334;23.876;2023-07-29T08:52:20;55618.66;;;-140.56;33.22
10482;BME280;5288;42.334;23.876;2023-07-29T08:54:48;55608.78;;;-140.56;32.36
10482;BME280;5288;42.334;23.876;2023-07-29T08:57:15;55602.84;;;-140.56;32.43
10482;BME280;5288;42.334;23.876;2023-07-29T08:59:43;55604.84;;;-140.56;32.97
10482;BME280;5288;42.334;23.876;2023-07-29T09:02:10;55614.72;;;-140.56;33.33
10482;BME280;5288;42.334;23.876;2023-07-29T09:04:37;55618.66;;;-140.56;33.06
10482;BME280;5288;42.334;23.876;2023-07-29T09:07:05;55604.84;;;-140.56;32.83
10482;BME280;5288;42.334;23.876;2023-07-29T09:09:34;55594.94;;;-140.56;33.28
10482;BME280;5288;42.334;23.876;2023-07-29T09:12:01;55598.91;;;-140.56;32.94
10482;BME280;5288;42.334;23.876;2023-07-29T09:14:28;55608.78;;;-140.56;32.71
10482;BME280;5288;42.334;23.876;2023-07-29T09:16:55;55587.06;;;-140.56;34.46
10482;BME280;5288;42.334;23.876;2023-07-29T09:19:25;55577.16;;;-140.56;33.93
10482;BME280;5288;42.334;23.876;2023-07-29T09:21:52;55563.34;;;-140.56;33.91
10482;BME280;5288;42.334;23.876;2023-07-29T09:24:21;55551.47;;;-140.56;32.95
10482;BME280;5288;42.334;23.876;2023-07-29T09:26:51;55567.28;;;-140.56;34.69
10482;BME280;5288;42.334;23.876;2023-07-29T09:29:22;55579.16;;;-140.56;32.89
10482;BME280;5288;42.334;23.876;2023-07-29T09:31:49;55569.25;;;-140.56;31.99
10482;BME280;5288;42.334;23.876;2023-07-29T09:34:16;55583.09;;;-140.56;31.58
10482;BME280;5288;42.334;23.876;2023-07-29T09:36:43;55624.59;;;-140.56;31.93
10482;BME280;5288;42.334;23.876;2023-07-29T09:39:11;55598.91;;;-140.56;32.79
10482;BME280;5288;42.334;23.876;2023-07-29T09:41:40;55579.16;;;-140.56;31.51
10482;BME280;5288;42.334;23.876;2023-07-29T09:44:07;55575.19;;;-140.56;31.09
10482;BME280;5288;42.334;23.876;2023-07-29T09:46:35;55577.16;;;-140.56;32.76
10482;BME280;5288;42.334;23.876;2023-07-29T09:49:03;55587.06;;;-140.56;33.10
10482;BME280;5288;42.334;23.876;2023-07-29T09:51:30;55551.47;;;-140.56;32.85
10482;BME280;5288;42.334;23.876;2023-07-29T09:53:57;55567.28;;;-140.56;31.46
10482;BME280;5288;42.334;23.876;2023-07-29T09:56:26;55583.09;;;-140.56;31.66
10482;BME280;5288;42.334;23.876;2023-07-29T09:58:55;55575.19;;;-140.56;30.99
10482;BME280;5288;42.334;23.876;2023-07-29T10:01:23;55563.34;;;-140.56;31.60
10482;BME280;5288;42.334;23.876;2023-07-29T10:03:50;55587.06;;;-140.56;31.93
10482;BME280;5288;42.334;23.876;2023-07-29T10:06:18;55567.28;;;-140.56;30.73
10482;BME280;5288;42.334;23.876;2023-07-29T10:08:47;55575.19;;;-140.56;30.41
10482;BME280;5288;42.334;23.876;2023-07-29T10:11:16;55571.25;;;-140.56;30.96
10482;BME280;5288;42.334;23.876;2023-07-29T10:13:46;55581.13;;;-140.56;29.82
10482;BME280;5288;42.334;23.876;2023-07-29T10:16:14;55569.25;;;-140.56;30.40
10482;BME280;5288;42.334;23.876;2023-07-29T10:18:42;55571.25;;;-140.56;30.30
10482;BME280;5288;42.334;23.876;2023-07-29T10:21:11;55537.66;;;-140.56;30.30
10482;BME280;5288;42.334;23.876;2023-07-29T10:23:42;55531.72;;;-140.56;29.74
10482;BME280;5288;42.334;23.876;2023-07-29T10:26:13;55535.69;;;-140.56;29.66
10482;BME280;5288;42.334;23.876;2023-07-29T10:28:41;55496.16;;;-140.56;30.14
10482;BME280;5288;42.334;23.876;2023-07-29T10:31:15;55504.06;;;-140.56;29.25
10482;BME280;5288;42.334;23.876;2023-07-29T10:33:43;55504.06;;;-140.56;29.35
10482;BME280;5288;42.334;23.876;2023-07-29T10:36:10;55519.88;;;-140.56;29.20
10482;BME280;5288;42.334;23.876;2023-07-29T10:38:38;55515.91;;;-140.56;29.44
10482;BME280;5288;42.334;23.876;2023-07-29T10:41:05;55496.16;;;-140.56;28.77
10482;BME280;5288;42.334;23.876;2023-07-29T10:43:33;55527.78;;;-140.56;29.38
10482;BME280;5288;42.334;23.876;2023-07-29T10:46:16;55533.69;;;-140.56;29.87
10482;BME280;5288;42.334;23.876;2023-07-29T10:48:44;55511.97;;;-140.56;29.68
10482;BME280;5288;42.334;23.876;2023-07-29T10:51:25;55517.91;;;-140.56;29.53
10482;BME280;5288;42.334;23.876;2023-07-29T10:53:55;55515.91;;;-140.56;28.95
10482;BME280;5288;42.334;23.876;2023-07-29T10:56:31;55492.22;;;-140.56;29.11
10482;BME280;5288;42.334;23.876;2023-07-29T10:59:03;55506.03;;;-140.56;28.56
10482;BME280;5288;42.334;23.876;2023-07-29T11:01:54;55506.03;;;-140.56;29.35
10482;BME280;5288;42.334;23.876;2023-07-29T11:04:25;55496.16;;;-140.56;29.17
10482;BME280;5288;42.334;23.876;2023-07-29T11:07:20;55478.38;;;-140.56;28.43
10482;BME280;5288;42.334;23.876;2023-07-29T11:10:02;55466.53;;;-140.56;28.29
10482;BME280;5288;42.334;23.876;2023-07-29T11:12:40;55490.22;;;-140.56;28.50
10482;BME280;5288;42.334;23.876;2023-07-29T11:15:24;55492.22;;;-140.56;28.67
10482;BME280;5288;42.334;23.876;2023-07-29T11:17:54;55500.09;;;-140.56;28.61
10482;BME280;5288;42.334;23.876;2023-07-29T11:20:22;55506.03;;;-140.56;28.66
10482;BME280;5288;42.334;23.876;2023-07-29T11:22:49;55486.28;;;-140.56;28.64
10482;BME280;5288;42.334;23.876;2023-07-29T11:25:17;55515.91;;;-140.56;28.79
10482;BME280;5288;42.334;23.876;2023-07-29T11:27:45;55488.25;;;-140.56;28.31
10482;BME280;5288;42.334;23.876;2023-07-29T11:30:13;55510.00;;;-140.56;28.48
10482;BME280;5288;42.334;23.876;2023-07-29T11:32:42;55527.78;;;-140.56;28.92
10482;BME280;5288;42.334;23.876;2023-07-29T11:35:12;55484.31;;;-140.56;29.85
10482;BME280;5288;42.334;23.876;2023-07-29T11:37:41;55500.09;;;-140.56;29.93
10482;BME280;5288;42.334;23.876;2023-07-29T11:40:09;55525.78;;;-140.56;28.51
10482;BME280;5288;42.334;23.876;2023-07-29T11:42:37;55517.91;;;-140.56;28.98
10482;BME280;5288;42.334;23.876;2023-07-29T11:45:05;55488.25;;;-140.56;29.76
10482;BME280;5288;42.334;23.876;2023-07-29T11:47:33;55490.22;;;-140.56;29.58
10482;BME280;5288;42.334;23.876;2023-07-29T11:50:03;55508.00;;;-140.56;29.18
10482;BME280;5288;42.334;23.876;2023-07-29T11:52:32;55525.78;;;-140.56;29.83
10482;BME280;5288;42.334;23.876;2023-07-29T11:55:00;55529.75;;;-140.56;29.37
10482;BME280;5288;42.334;23.876;2023-07-29T11:57:28;55488.25;;;-140.56;30.81
10482;BME280;5288;42.334;23.876;2023-07-29T11:59:56;55492.22;;;-140.56;29.16
10482;BME280;5288;42.334;23.876;2023-07-29T12:02:23;55515.91;;;-140.56;28.51
10482;BME280;5288;42.334;23.876;2023-07-29T12:04:51;55508.00;;;-140.56;28.57
10482;BME280;5288;42.334;23.876;2023-07-29T12:07:19;55523.81;;;-140.56;28.44
10482;BME280;5288;42.334;23.876;2023-07-29T12:09:47;55513.94;;;-140.56;29.58
10482;BME280;5288;42.334;23.876;2023-07-29T12:12:16;55502.09;;;-140.56;28.74
10482;BME280;5288;42.334;23.876;2023-07-29T12:14:44;55464.53;;;-140.56;30.58
10482;BME280;5288;42.334;23.876;2023-07-29T12:17:12;55460.59;;;-140.56;28.16
10482;BME280;5288;42.334;23.876;2023-07-29T12:19:40;55446.75;;;-140.56;27.18
10482;BME280;5288;42.334;23.876;2023-07-29T12:22:10;55428.97;;;-140.56;28.56
10482;BME280;5288;42.334;23.876;2023-07-29T12:24:39;55427.00;;;-140.56;27.99
10482;BME280;5288;42.334;23.876;2023-07-29T12:27:10;55448.72;;;-140.56;27.54
10482;BME280;5288;42.334;23.876;2023-07-29T12:29:40;55444.78;;;-140.56;26.61
10482;BME280;5288;42.334;23.876;2023-07-29T12:32:08;55460.59;;;-140.56;27.71
10482;BME280;5288;42.334;23.876;2023-07-29T12:34:37;55397.38;;;-140.56;27.88
10482;BME280;5288;42.334;23.876;2023-07-29T12:37:05;55391.44;;;-140.56;28.30
10482;BME280;5288;42.334;23.876;2023-07-29T12:39:35;55444.78;;;-140.56;26.88
10482;BME280;5288;42.334;23.876;2023-07-29T12:42:03;55395.38;;;-140.56;26.44
10482;BME280;5288;42.334;23.876;2023-07-29T12:44:34;55397.38;;;-140.56;25.86